Alger, MI

9:13 PM EDT on October 20, 2014 (GMT -0400)
Pinconning farm country, (Pintucky Hawg Farm) | Change Station
CLOSE
Current Station
Personal Weather Station
Location: Pinconning, MI
Elevation: 623 ft
Nearby Weather Stations

Elev 623 ft 43.82 °N, 84.03 °W | Updated 8 minutes ago

Overcast
Overcast
49.3 °F
Feels Like 48 °F
N
4.7
Wind Variable Wind from SW

Today
High -- | Low -- °F
--% Chance of Precip.
Yesterday
High -- | Low -- °F
Precip. -- in
7:57 AM 6:44 PM
Waning Crescent, 8% visible
Pressure 29.91 in
Visibility 10.0 miles
Clouds Mostly Cloudy 1200 ft
Overcast 2400 ft
Windchill 48 °F
Dew Point 46 °F
Humidity 88%
Rainfall 0.17 in
Snow Depth Not available.
UV 0 out of 12
Pollen .30 out of 12
PM2.5 Good
Flu Activity Sporadic
METAR KHTL 210053Z AUTO 32008KT 10SM BKN012 OVC024 08/06 A2989 RMK AO2 SLP127 T00780056

More Conditions Fewer Conditions

Pressure 29.91 in
Visibility 10.0 miles
Clouds Mostly Cloudy 1200 ft
Overcast 2400 ft
Windchill 48 °F
Dew Point 46 °F
Humidity 88%
Rainfall 0.17 in
Snow Depth Not available.
UV 0 out of 12
Pollen .30 out of 12
PM2.5 Good
Flu Activity Sporadic
METAR KHTL 210053Z AUTO 32008KT 10SM BKN012 OVC024 08/06 A2989 RMK AO2 SLP127 T00780056

More Conditions Fewer Conditions

Nowcast | as of 9:00 PM EDT on October 20, 2014

At 10 PM...cloudy. Patchy drizzle. Temperature 47. Northwest winds 7 mph. At 12 am...cloudy. Patchy drizzle. Temperature 45. Northwest winds 9 mph. At 2 am...cloudy. Patchy drizzle. Temperature 44. Northwest winds 10 mph. At 4 am...cloudy. Patchy drizzle. Temperature 44. Northwest winds 13 mph.

×

10-Day Weather Forecast

Almanac

Astronomy

Oct. 20, 2014 Rise Set
Actual Time 7:57 AM EDT 6:44 PM EDT
Civil Twilight 7:28 AM EDT 7:13 PM EDT
Nautical Twilight 6:54 AM EDT 7:47 PM EDT
Astronomical Twilight 6:20 AM EDT 8:20 PM EDT
Moon 4:38 AM EDT (10/20) 5:11 PM EDT (10/20)
Length of Visible Light 11h 45m
Length of Day
10h 46m
Tomorrow will be 2m 54s shorter.
Waning Crescent, 8% of the Moon is Illuminated
Today
Waning Crescent
Oct 23
New
Oct 30
First Quarter
Nov 6
Full
Nov 14
Last Quarter

Today's Extremes

State Highs State Lows

Community

WunderPhotos

Upload Photos

1,763,578 photos uploaded!

Nearby

Air Quality

  Air Quality AQ Index Pollutant
Yesterday Good
PM2.5
Current Good
PM2.5
Monday Good
PM2.5
Tuesday Good
PM2.5
Wednesday Good
PM2.5
Thursday Good
PM2.5
Friday Good
PM2.5
Saturday Good
PM2.5

Snow Depth

Station Depth Elevation
No new snow has been reported.

Earthquake Activity

City Distance Mag. Time & Date
No recent earthquake activity has been reported nearby.
Minimum magnitude displayed is 2.5.

Coastal Water Temperatures

Place Temperature
Harbor Beach, MI 51.1 °F

Nearby Weather Stations